sensor_id;sensor_type;location;lat;lon;timestamp;pressure;altitude;pressure_sealevel;temperature;humidity
45078;BME280;60508;42.622;25.416;2022-12-04T00:01:44;97941.78;;;7.03;92.25
45078;BME280;60508;42.622;25.416;2022-12-04T00:04:10;97932.94;;;7.03;92.10
45078;BME280;60508;42.622;25.416;2022-12-04T00:06:35;97930.72;;;7.06;91.79
45078;BME280;60508;42.622;25.416;2022-12-04T00:09:01;97941.59;;;7.05;91.70
45078;BME280;60508;42.622;25.416;2022-12-04T00:11:29;97939.13;;;7.03;91.66
45078;BME280;60508;42.622;25.416;2022-12-04T00:13:55;97935.50;;;7.11;91.49
45078;BME280;60508;42.622;25.416;2022-12-04T00:16:24;97941.28;;;7.15;90.96
45078;BME280;60508;42.622;25.416;2022-12-04T00:18:51;97928.34;;;7.18;90.73
45078;BME280;60508;42.622;25.416;2022-12-04T00:21:18;97931.53;;;7.07;90.62
45078;BME280;60508;42.622;25.416;2022-12-04T00:23:44;97931.09;;;7.03;90.96
45078;BME280;60508;42.622;25.416;2022-12-04T00:26:22;97927.41;;;7.04;90.73
45078;BME280;60508;42.622;25.416;2022-12-04T00:28:49;97938.63;;;6.93;91.32
45078;BME280;60508;42.622;25.416;2022-12-04T00:31:18;97931.84;;;6.97;91.26
45078;BME280;60508;42.622;25.416;2022-12-04T00:33:44;97938.16;;;6.89;91.55
45078;BME280;60508;42.622;25.416;2022-12-04T00:36:13;97937.91;;;6.84;92.16
45078;BME280;60508;42.622;25.416;2022-12-04T00:38:39;97932.75;;;6.83;92.51
45078;BME280;60508;42.622;25.416;2022-12-04T00:41:13;97927.41;;;6.83;92.93
45078;BME280;60508;42.622;25.416;2022-12-04T00:43:39;97936.53;;;6.88;92.85
45078;BME280;60508;42.622;25.416;2022-12-04T00:46:06;97927.03;;;6.86;92.92
45078;BME280;60508;42.622;25.416;2022-12-04T00:48:32;97934.84;;;6.87;92.51
45078;BME280;60508;42.622;25.416;2022-12-04T00:51:05;97935.63;;;6.81;93.41
45078;BME280;60508;42.622;25.416;2022-12-04T00:53:32;97940.56;;;6.84;93.14
45078;BME280;60508;42.622;25.416;2022-12-04T00:55:58;97921.50;;;6.87;93.53
45078;BME280;60508;42.622;25.416;2022-12-04T00:58:23;97923.09;;;6.82;93.56
45078;BME280;60508;42.622;25.416;2022-12-04T01:00:49;97926.28;;;6.92;93.56
45078;BME280;60508;42.622;25.416;2022-12-04T01:03:15;97931.19;;;6.88;93.19
45078;BME280;60508;42.622;25.416;2022-12-04T01:05:43;97929.56;;;6.94;92.62
45078;BME280;60508;42.622;25.416;2022-12-04T01:08:10;97930.41;;;6.94;92.85
45078;BME280;60508;42.622;25.416;2022-12-04T01:10:41;97936.13;;;6.91;93.06
45078;BME280;60508;42.622;25.416;2022-12-04T01:13:07;97931.22;;;6.95;93.07
45078;BME280;60508;42.622;25.416;2022-12-04T01:15:37;97916.47;;;6.78;93.40
45078;BME280;60508;42.622;25.416;2022-12-04T01:18:03;97938.34;;;6.88;94.33
45078;BME280;60508;42.622;25.416;2022-12-04T01:20:29;97924.16;;;6.87;94.21
45078;BME280;60508;42.622;25.416;2022-12-04T01:22:55;97932.56;;;6.84;94.28
45078;BME280;60508;42.622;25.416;2022-12-04T01:25:20;97927.28;;;6.91;94.34
45078;BME280;60508;42.622;25.416;2022-12-04T01:27:46;97928.13;;;6.91;93.84
45078;BME280;60508;42.622;25.416;2022-12-04T01:30:12;97941.91;;;6.95;94.21
45078;BME280;60508;42.622;25.416;2022-12-04T01:32:37;97927.22;;;6.84;94.21
45078;BME280;60508;42.622;25.416;2022-12-04T01:35:04;97933.59;;;6.83;94.80
45078;BME280;60508;42.622;25.416;2022-12-04T01:37:31;97929.06;;;6.84;94.85
45078;BME280;60508;42.622;25.416;2022-12-04T01:39:57;97924.75;;;6.83;95.27
45078;BME280;60508;42.622;25.416;2022-12-04T01:42:24;97935.03;;;6.86;94.94
45078;BME280;60508;42.622;25.416;2022-12-04T01:47:55;97920.47;;;6.67;96.66
45078;BME280;60508;42.622;25.416;2022-12-04T01:50:23;97908.91;;;6.60;96.97
45078;BME280;60508;42.622;25.416;2022-12-04T01:52:50;97918.00;;;6.65;97.28
45078;BME280;60508;42.622;25.416;2022-12-04T01:55:15;97913.69;;;6.64;97.01
45078;BME280;60508;42.622;25.416;2022-12-04T01:57:41;97919.28;;;6.69;96.68
45078;BME280;60508;42.622;25.416;2022-12-04T02:00:14;97915.91;;;6.61;96.79
45078;BME280;60508;42.622;25.416;2022-12-04T02:02:44;97920.88;;;6.64;96.96
45078;BME280;60508;42.622;25.416;2022-12-04T02:05:13;97913.69;;;6.64;97.12
45078;BME280;60508;42.622;25.416;2022-12-04T02:07:40;97914.56;;;6.71;96.87
45078;BME280;60508;42.622;25.416;2022-12-04T02:10:08;97897.78;;;6.56;96.91
45078;BME280;60508;42.622;25.416;2022-12-04T02:12:58;97906.69;;;6.63;97.04
45078;BME280;60508;42.622;25.416;2022-12-04T02:18:15;97909.88;;;6.73;97.29
45078;BME280;60508;42.622;25.416;2022-12-04T02:29:02;97920.94;;;6.70;96.48
45078;BME280;60508;42.622;25.416;2022-12-04T02:31:34;97916.97;;;6.66;96.73
45078;BME280;60508;42.622;25.416;2022-12-04T02:34:31;97925.06;;;6.73;96.71
45078;BME280;60508;42.622;25.416;2022-12-04T02:37:08;97919.28;;;6.69;96.56
45078;BME280;60508;42.622;25.416;2022-12-04T02:39:54;97916.59;;;6.69;96.46
45078;BME280;60508;42.622;25.416;2022-12-04T02:45:13;97915.78;;;6.69;96.39
45078;BME280;60508;42.622;25.416;2022-12-04T02:47:41;97914.81;;;6.76;96.06
45078;BME280;60508;42.622;25.416;2022-12-04T02:50:14;97919.34;;;6.76;95.79
45078;BME280;60508;42.622;25.416;2022-12-04T02:52:44;97925.41;;;6.85;95.37
45078;BME280;60508;42.622;25.416;2022-12-04T02:55:16;97925.31;;;6.78;95.28
45078;BME280;60508;42.622;25.416;2022-12-04T02:57:48;97921.13;;;6.69;95.56
45078;BME280;60508;42.622;25.416;2022-12-04T03:00:15;97913.94;;;6.69;95.48
45078;BME280;60508;42.622;25.416;2022-12-04T03:05:15;97916.03;;;6.74;95.06
45078;BME280;60508;42.622;25.416;2022-12-04T03:07:51;97913.81;;;6.78;95.13
45078;BME280;60508;42.622;25.416;2022-12-04T03:10:33;97916.03;;;6.74;94.49
45078;BME280;60508;42.622;25.416;2022-12-04T03:13:19;97919.34;;;6.76;93.76
45078;BME280;60508;42.622;25.416;2022-12-04T03:15:51;97923.59;;;6.70;94.10
45078;BME280;60508;42.622;25.416;2022-12-04T03:18:25;97916.66;;;6.54;94.80
45078;BME280;60508;42.622;25.416;2022-12-04T03:21:00;97911.69;;;6.51;95.05
45078;BME280;60508;42.622;25.416;2022-12-04T03:23:31;97917.47;;;6.55;95.59
45078;BME280;60508;42.622;25.416;2022-12-04T03:26:02;97924.69;;;6.54;95.78
45078;BME280;60508;42.622;25.416;2022-12-04T03:31:09;97909.16;;;6.43;96.23
45078;BME280;60508;42.622;25.416;2022-12-04T03:33:40;97905.91;;;6.48;95.93
45078;BME280;60508;42.622;25.416;2022-12-04T03:36:51;97902.72;;;6.37;96.12
45078;BME280;60508;42.622;25.416;2022-12-04T03:39:22;97906.22;;;6.38;95.97
45078;BME280;60508;42.622;25.416;2022-12-04T03:42:08;97908.44;;;6.34;95.92
45078;BME280;60508;42.622;25.416;2022-12-04T03:44:46;97914.13;;;6.31;96.47
45078;BME280;60508;42.622;25.416;2022-12-04T03:47:18;97912.19;;;6.40;96.67
45078;BME280;60508;42.622;25.416;2022-12-04T03:49:59;97920.41;;;6.38;96.54
45078;BME280;60508;42.622;25.416;2022-12-04T03:52:41;97916.72;;;6.39;96.37
45078;BME280;60508;42.622;25.416;2022-12-04T03:55:28;97911.47;;;6.31;96.11
45078;BME280;60508;42.622;25.416;2022-12-04T03:58:01;97925.09;;;6.36;95.90
45078;BME280;60508;42.622;25.416;2022-12-04T04:00:30;97929.59;;;6.36;96.15
45078;BME280;60508;42.622;25.416;2022-12-04T04:03:02;97924.38;;;6.28;96.33
45078;BME280;60508;42.622;25.416;2022-12-04T04:05:32;97914.25;;;6.23;96.21
45078;BME280;60508;42.622;25.416;2022-12-04T04:08:01;97926.47;;;6.32;95.92
45078;BME280;60508;42.622;25.416;2022-12-04T04:11:13;97931.75;;;6.26;95.61
45078;BME280;60508;42.622;25.416;2022-12-04T04:13:56;97932.75;;;6.25;96.33
45078;BME280;60508;42.622;25.416;2022-12-04T04:16:46;97921.81;;;6.19;96.69
45078;BME280;60508;42.622;25.416;2022-12-04T04:19:34;97925.97;;;6.22;96.61
45078;BME280;60508;42.622;25.416;2022-12-04T04:22:21;97929.72;;;6.28;96.63
45078;BME280;60508;42.622;25.416;2022-12-04T04:25:18;97942.22;;;6.27;96.44
45078;BME280;60508;42.622;25.416;2022-12-04T04:27:52;97939.56;;;6.27;96.03
45078;BME280;60508;42.622;25.416;2022-12-04T04:30:18;97941.00;;;6.30;96.17
45078;BME280;60508;42.622;25.416;2022-12-04T04:32:51;97941.50;;;6.33;95.65
45078;BME280;60508;42.622;25.416;2022-12-04T04:38:16;97948.69;;;6.18;96.48
45078;BME280;60508;42.622;25.416;2022-12-04T04:41:03;97950.63;;;6.24;96.30
45078;BME280;60508;42.622;25.416;2022-12-04T04:46:17;97954.47;;;6.36;95.87
45078;BME280;60508;42.622;25.416;2022-12-04T04:48:48;97949.88;;;6.30;96.02
45078;BME280;60508;42.622;25.416;2022-12-04T04:51:15;97957.25;;;6.28;95.56
45078;BME280;60508;42.622;25.416;2022-12-04T04:53:49;97951.50;;;6.31;95.44
45078;BME280;60508;42.622;25.416;2022-12-04T04:56:17;97956.41;;;6.28;95.21
45078;BME280;60508;42.622;25.416;2022-12-04T04:58:43;97952.53;;;6.30;95.46
45078;BME280;60508;42.622;25.416;2022-12-04T05:01:12;97952.72;;;6.29;95.53
45078;BME280;60508;42.622;25.416;2022-12-04T05:03:38;97956.66;;;6.33;95.23
45078;BME280;60508;42.622;25.416;2022-12-04T05:06:04;97949.88;;;6.30;95.10
45078;BME280;60508;42.622;25.416;2022-12-04T05:08:31;97949.97;;;6.22;95.17
45078;BME280;60508;42.622;25.416;2022-12-04T05:10:57;97951.81;;;6.21;95.26
45078;BME280;60508;42.622;25.416;2022-12-04T05:13:23;97953.28;;;6.24;95.20
45078;BME280;60508;42.622;25.416;2022-12-04T05:16:03;97951.81;;;6.21;95.18
45078;BME280;60508;42.622;25.416;2022-12-04T05:18:30;97955.13;;;6.24;95.24
45078;BME280;60508;42.622;25.416;2022-12-04T05:20:58;97961.09;;;6.26;95.17
45078;BME280;60508;42.622;25.416;2022-12-04T05:23:24;97966.25;;;6.27;95.35
45078;BME280;60508;42.622;25.416;2022-12-04T05:25:50;97963.16;;;6.24;95.27
45078;BME280;60508;42.622;25.416;2022-12-04T05:28:22;97963.06;;;6.17;95.68
45078;BME280;60508;42.622;25.416;2022-12-04T05:30:56;97961.75;;;6.13;95.94
45078;BME280;60508;42.622;25.416;2022-12-04T05:33:22;97963.13;;;6.09;96.43
45078;BME280;60508;42.622;25.416;2022-12-04T05:36:06;97963.81;;;6.11;96.37
45078;BME280;60508;42.622;25.416;2022-12-04T05:38:34;97966.91;;;6.14;96.22
45078;BME280;60508;42.622;25.416;2022-12-04T05:41:01;97975.22;;;6.05;96.03
45078;BME280;60508;42.622;25.416;2022-12-04T05:43:28;97981.63;;;6.10;95.78
45078;BME280;60508;42.622;25.416;2022-12-04T05:45:54;97979.91;;;6.02;96.38
45078;BME280;60508;42.622;25.416;2022-12-04T05:48:20;97976.41;;;6.17;96.27
45078;BME280;60508;42.622;25.416;2022-12-04T05:50:47;97978.69;;;6.20;95.73
45078;BME280;60508;42.622;25.416;2022-12-04T05:53:13;97990.03;;;6.22;94.87
45078;BME280;60508;42.622;25.416;2022-12-04T05:55:38;97983.94;;;6.13;94.92
45078;BME280;60508;42.622;25.416;2022-12-04T05:58:04;97981.81;;;6.09;95.83
45078;BME280;60508;42.622;25.416;2022-12-04T06:00:30;97979.34;;;6.07;96.28
45078;BME280;60508;42.622;25.416;2022-12-04T06:02:56;97975.03;;;6.06;95.87
45078;BME280;60508;42.622;25.416;2022-12-04T06:05:22;97977.50;;;6.08;96.30
45078;BME280;60508;42.622;25.416;2022-12-04T06:07:47;97985.97;;;6.11;95.99
45078;BME280;60508;42.622;25.416;2022-12-04T06:10:13;97990.31;;;6.12;96.26
45078;BME280;60508;42.622;25.416;2022-12-04T06:12:39;97993.78;;;6.13;96.04
45078;BME280;60508;42.622;25.416;2022-12-04T06:15:05;97996.81;;;6.10;96.59
45078;BME280;60508;42.622;25.416;2022-12-04T06:17:31;98001.78;;;6.13;96.26
45078;BME280;60508;42.622;25.416;2022-12-04T06:19:57;98000.88;;;6.20;95.90
45078;BME280;60508;42.622;25.416;2022-12-04T06:22:23;98006.84;;;6.22;96.07
45078;BME280;60508;42.622;25.416;2022-12-04T06:24:48;98006.94;;;6.29;95.15
45078;BME280;60508;42.622;25.416;2022-12-04T06:27:14;98007.66;;;6.23;95.32
45078;BME280;60508;42.622;25.416;2022-12-04T06:29:40;98008.50;;;6.24;95.36
45078;BME280;60508;42.622;25.416;2022-12-04T06:32:06;98005.28;;;6.28;95.02
45078;BME280;60508;42.622;25.416;2022-12-04T06:34:32;98013.84;;;6.24;95.19
45078;BME280;60508;42.622;25.416;2022-12-04T06:36:58;98013.94;;;6.30;95.02
45078;BME280;60508;42.622;25.416;2022-12-04T06:39:26;98021.38;;;6.35;94.84
45078;BME280;60508;42.622;25.416;2022-12-04T06:41:51;98022.22;;;6.35;93.91
45078;BME280;60508;42.622;25.416;2022-12-04T06:44:17;98014.00;;;6.37;94.21
45078;BME280;60508;42.622;25.416;2022-12-04T06:46:43;98017.69;;;6.36;94.52
45078;BME280;60508;42.622;25.416;2022-12-04T06:49:12;98014.00;;;6.37;94.64
45078;BME280;60508;42.622;25.416;2022-12-04T06:51:37;98017.69;;;6.36;94.62
45078;BME280;60508;42.622;25.416;2022-12-04T06:54:05;98018.53;;;6.36;95.13
45078;BME280;60508;42.622;25.416;2022-12-04T06:56:32;98014.00;;;6.37;94.74
45078;BME280;60508;42.622;25.416;2022-12-04T06:59:00;98017.50;;;6.37;94.72
45078;BME280;60508;42.622;25.416;2022-12-04T07:01:28;98019.81;;;6.40;94.81
45078;BME280;60508;42.622;25.416;2022-12-04T07:03:55;98028.44;;;6.43;94.86
45078;BME280;60508;42.622;25.416;2022-12-04T07:06:24;98027.25;;;6.45;94.02
45078;BME280;60508;42.622;25.416;2022-12-04T07:08:52;98031.41;;;6.48;93.29
45078;BME280;60508;42.622;25.416;2022-12-04T07:11:19;98032.22;;;6.48;93.66
45078;BME280;60508;42.622;25.416;2022-12-04T07:13:46;98020.91;;;6.31;93.95
45078;BME280;60508;42.622;25.416;2022-12-04T07:16:14;98039.91;;;6.36;94.29
45078;BME280;60508;42.622;25.416;2022-12-04T07:18:40;98034.38;;;6.38;94.27
45078;BME280;60508;42.622;25.416;2022-12-04T07:21:08;98030.94;;;6.29;94.71
45078;BME280;60508;42.622;25.416;2022-12-04T07:23:35;98027.72;;;6.34;94.95
45078;BME280;60508;42.622;25.416;2022-12-04T07:26:09;98024.78;;;6.44;94.50
45078;BME280;60508;42.622;25.416;2022-12-04T07:28:36;98031.69;;;6.38;94.37
45078;BME280;60508;42.622;25.416;2022-12-04T07:31:07;98031.59;;;6.31;93.83
45078;BME280;60508;42.622;25.416;2022-12-04T07:33:33;98036.09;;;6.31;94.23
45078;BME280;60508;42.622;25.416;2022-12-04T07:36:00;98024.44;;;6.32;94.02
45078;BME280;60508;42.622;25.416;2022-12-04T07:38:28;98022.84;;;6.37;94.13
45078;BME280;60508;42.622;25.416;2022-12-04T07:40:58;98021.00;;;6.23;93.77
45078;BME280;60508;42.622;25.416;2022-12-04T07:43:24;98030.41;;;6.34;93.93
45078;BME280;60508;42.622;25.416;2022-12-04T07:45:50;98036.28;;;6.44;93.96
45078;BME280;60508;42.622;25.416;2022-12-04T07:48:19;98035.63;;;6.42;93.59
45078;BME280;60508;42.622;25.416;2022-12-04T07:50:45;98052.41;;;6.51;93.04
45078;BME280;60508;42.622;25.416;2022-12-04T07:53:11;98034.81;;;6.42;93.26
45078;BME280;60508;42.622;25.416;2022-12-04T07:55:37;98040.16;;;6.42;92.64
45078;BME280;60508;42.622;25.416;2022-12-04T07:58:02;98040.59;;;6.45;92.92
45078;BME280;60508;42.622;25.416;2022-12-04T08:00:28;98049.34;;;6.54;92.50
45078;BME280;60508;42.622;25.416;2022-12-04T08:02:54;98044.59;;;6.49;92.51
45078;BME280;60508;42.622;25.416;2022-12-04T08:05:20;98044.47;;;6.57;92.15
45078;BME280;60508;42.622;25.416;2022-12-04T08:07:46;98042.78;;;6.71;91.21
45078;BME280;60508;42.622;25.416;2022-12-04T08:10:12;98038.75;;;6.61;91.21
45078;BME280;60508;42.622;25.416;2022-12-04T08:12:38;98033.22;;;6.47;91.49
45078;BME280;60508;42.622;25.416;2022-12-04T08:15:04;98040.88;;;6.50;91.85
45078;BME280;60508;42.622;25.416;2022-12-04T08:17:31;98045.03;;;6.53;91.79
45078;BME280;60508;42.622;25.416;2022-12-04T08:19:57;98042.66;;;6.43;91.93
45078;BME280;60508;42.622;25.416;2022-12-04T08:22:23;98047.63;;;6.46;92.03
45078;BME280;60508;42.622;25.416;2022-12-04T08:24:49;98044.28;;;6.44;92.19
45078;BME280;60508;42.622;25.416;2022-12-04T08:27:16;98039.13;;;6.43;92.27
45078;BME280;60508;42.622;25.416;2022-12-04T08:29:42;98051.09;;;6.47;92.13
45078;BME280;60508;42.622;25.416;2022-12-04T08:32:08;98046.94;;;6.44;92.38
45078;BME280;60508;42.622;25.416;2022-12-04T08:34:34;98041.63;;;6.44;92.49
45078;BME280;60508;42.622;25.416;2022-12-04T08:37:00;98042.09;;;6.48;92.58
45078;BME280;60508;42.622;25.416;2022-12-04T08:39:26;98033.72;;;6.51;91.65
45078;BME280;60508;42.622;25.416;2022-12-04T08:41:52;98033.59;;;6.44;91.76
45078;BME280;60508;42.622;25.416;2022-12-04T08:44:18;98041.25;;;6.47;91.84
45078;BME280;60508;42.622;25.416;2022-12-04T08:46:44;98033.59;;;6.44;92.37
45078;BME280;60508;42.622;25.416;2022-12-04T08:49:10;98037.94;;;6.45;92.34
45078;BME280;60508;42.622;25.416;2022-12-04T08:51:36;98031.53;;;6.39;92.28
45078;BME280;60508;42.622;25.416;2022-12-04T08:54:04;98034.09;;;6.48;91.84
45078;BME280;60508;42.622;25.416;2022-12-04T08:56:32;98039.06;;;6.51;91.76
45078;BME280;60508;42.622;25.416;2022-12-04T08:58:59;98041.50;;;6.52;91.53
45078;BME280;60508;42.622;25.416;2022-12-04T09:01:27;98024.66;;;6.52;91.55
45078;BME280;60508;42.622;25.416;2022-12-04T09:03:53;98034.16;;;6.54;91.44
45078;BME280;60508;42.622;25.416;2022-12-04T09:06:20;98028.63;;;6.56;91.42
45078;BME280;60508;42.622;25.416;2022-12-04T09:08:46;98031.97;;;6.43;91.76
45078;BME280;60508;42.622;25.416;2022-12-04T09:11:15;98022.00;;;6.52;91.31
45078;BME280;60508;42.622;25.416;2022-12-04T09:13:43;98034.72;;;6.50;91.07
45078;BME280;60508;42.622;25.416;2022-12-04T09:16:16;98022.63;;;6.54;90.57
45078;BME280;60508;42.622;25.416;2022-12-04T09:18:42;98023.75;;;6.60;90.47
45078;BME280;60508;42.622;25.416;2022-12-04T09:21:10;98027.91;;;6.62;90.15
45078;BME280;60508;42.622;25.416;2022-12-04T09:23:37;98017.84;;;6.64;90.26
45078;BME280;60508;42.622;25.416;2022-12-04T09:26:05;98012.13;;;6.67;90.10
45078;BME280;60508;42.622;25.416;2022-12-04T09:28:39;98013.66;;;6.76;90.33
45078;BME280;60508;42.622;25.416;2022-12-04T09:31:06;98025.94;;;6.71;89.88
45078;BME280;60508;42.622;25.416;2022-12-04T09:33:32;98014.50;;;6.77;89.62
45078;BME280;60508;42.622;25.416;2022-12-04T09:35:59;98007.31;;;6.78;89.35
45078;BME280;60508;42.622;25.416;2022-12-04T09:38:26;98006.22;;;6.72;89.55
45078;BME280;60508;42.622;25.416;2022-12-04T09:46:04;98010.69;;;6.86;88.57
45078;BME280;60508;42.622;25.416;2022-12-04T09:48:37;98000.63;;;6.88;88.50
45078;BME280;60508;42.622;25.416;2022-12-04T09:51:05;97999.72;;;6.81;87.65
45078;BME280;60508;42.622;25.416;2022-12-04T09:53:46;97992.56;;;6.82;88.15
45078;BME280;60508;42.622;25.416;2022-12-04T09:56:16;97988.47;;;6.86;88.16
45078;BME280;60508;42.622;25.416;2022-12-04T09:58:49;97997.59;;;6.91;88.00
45078;BME280;60508;42.622;25.416;2022-12-04T10:03:45;97994.75;;;6.78;88.60
45078;BME280;60508;42.622;25.416;2022-12-04T10:06:17;97982.94;;;6.87;88.66
45078;BME280;60508;42.622;25.416;2022-12-04T10:08:48;97984.00;;;6.71;89.25
45078;BME280;60508;42.622;25.416;2022-12-04T10:11:29;97975.63;;;6.74;89.26
45078;BME280;60508;42.622;25.416;2022-12-04T10:29:57;97954.75;;;6.63;89.26
45078;BME280;60508;42.622;25.416;2022-12-04T10:32:33;97955.59;;;6.64;89.92
45078;BME280;60508;42.622;25.416;2022-12-04T10:37:44;97947.00;;;6.68;89.54
45078;BME280;60508;42.622;25.416;2022-12-04T10:40:24;97948.84;;;6.68;89.91
45078;BME280;60508;42.622;25.416;2022-12-04T10:45:44;97932.19;;;6.66;90.16
45078;BME280;60508;42.622;25.416;2022-12-04T10:48:25;97932.00;;;6.67;89.81
45078;BME280;60508;42.622;25.416;2022-12-04T10:50:53;97929.25;;;6.61;90.16
45078;BME280;60508;42.622;25.416;2022-12-04T10:53:28;97922.88;;;6.62;90.46
45078;BME280;60508;42.622;25.416;2022-12-04T10:55:54;97916.59;;;6.69;90.28
45078;BME280;60508;42.622;25.416;2022-12-04T10:58:21;97923.81;;;6.69;89.82
45078;BME280;60508;42.622;25.416;2022-12-04T11:01:05;97919.03;;;6.64;89.75
45078;BME280;60508;42.622;25.416;2022-12-04T11:03:32;97919.66;;;6.66;89.52
45078;BME280;60508;42.622;25.416;2022-12-04T11:06:01;97912.75;;;6.72;89.48
45078;BME280;60508;42.622;25.416;2022-12-04T11:08:37;97912.22;;;6.62;90.01
45078;BME280;60508;42.622;25.416;2022-12-04T11:11:07;97896.44;;;6.67;89.60
45078;BME280;60508;42.622;25.416;2022-12-04T11:13:34;97896.84;;;6.64;88.80
45078;BME280;60508;42.622;25.416;2022-12-04T11:16:02;97895.25;;;6.69;89.30
45078;BME280;60508;42.622;25.416;2022-12-04T11:18:30;97902.25;;;6.70;88.95
45078;BME280;60508;42.622;25.416;2022-12-04T11:21:15;97901.22;;;6.71;89.37
45078;BME280;60508;42.622;25.416;2022-12-04T11:23:44;97902.47;;;6.54;89.64
45078;BME280;60508;42.622;25.416;2022-12-04T11:26:11;97903.38;;;6.61;89.89
45078;BME280;60508;42.622;25.416;2022-12-04T11:28:39;97893.19;;;6.71;89.35
45078;BME280;60508;42.622;25.416;2022-12-04T11:31:15;97889.56;;;6.79;89.46
45078;BME280;60508;42.622;25.416;2022-12-04T11:33:46;97888.09;;;6.76;88.92
45078;BME280;60508;42.622;25.416;2022-12-04T11:36:26;97899.06;;;6.82;88.29
45078;BME280;60508;42.622;25.416;2022-12-04T11:39:04;97887.09;;;6.78;88.65
45078;BME280;60508;42.622;25.416;2022-12-04T11:41:32;97888.22;;;6.68;88.90
45078;BME280;60508;42.622;25.416;2022-12-04T11:43:59;97895.50;;;6.74;88.90
45078;BME280;60508;42.622;25.416;2022-12-04T11:46:28;97898.16;;;6.74;88.86
45078;BME280;60508;42.622;25.416;2022-12-04T11:48:55;97889.94;;;6.76;88.65
45078;BME280;60508;42.622;25.416;2022-12-04T11:56:39;97890.59;;;6.78;87.88
45078;BME280;60508;42.622;25.416;2022-12-04T12:05:24;97892.44;;;6.78;87.82
45078;BME280;60508;42.622;25.416;2022-12-04T12:11:37;97891.00;;;6.75;87.17
45078;BME280;60508;42.622;25.416;2022-12-04T12:22:35;97878.56;;;6.89;87.69
45078;BME280;60508;42.622;25.416;2022-12-04T12:25:19;97879.84;;;6.93;87.87
45078;BME280;60508;42.622;25.416;2022-12-04T12:36:08;97859.88;;;7.17;85.88
45078;BME280;60508;42.622;25.416;2022-12-04T12:38:45;97855.34;;;7.18;85.41
45078;BME280;60508;42.622;25.416;2022-12-04T12:41:16;97863.22;;;7.26;85.52
45078;BME280;60508;42.622;25.416;2022-12-04T12:43:55;97869.75;;;7.23;86.20
45078;BME280;60508;42.622;25.416;2022-12-04T12:56:47;97876.44;;;7.34;85.38
45078;BME280;60508;42.622;25.416;2022-12-04T12:59:18;97877.25;;;7.35;85.67
45078;BME280;60508;42.622;25.416;2022-12-04T13:01:55;97878.09;;;7.35;85.22
45078;BME280;60508;42.622;25.416;2022-12-04T13:04:34;97870.41;;;7.25;85.81
45078;BME280;60508;42.622;25.416;2022-12-04T13:09:47;97865.13;;;7.32;84.72
45078;BME280;60508;42.622;25.416;2022-12-04T13:12:17;97866.81;;;7.40;85.04
45078;BME280;60508;42.622;25.416;2022-12-04T13:14:45;97870.88;;;7.36;85.25
45078;BME280;60508;42.622;25.416;2022-12-04T13:17:16;97869.19;;;7.28;84.79
45078;BME280;60508;42.622;25.416;2022-12-04T13:19:55;97867.00;;;7.38;84.67
45078;BME280;60508;42.622;25.416;2022-12-04T13:25:54;97862.81;;;7.29;83.87
45078;BME280;60508;42.622;25.416;2022-12-04T13:28:28;97871.47;;;7.31;84.73
45078;BME280;60508;42.622;25.416;2022-12-04T13:42:25;97884.00;;;7.02;86.12
45078;BME280;60508;42.622;25.416;2022-12-04T13:44:58;97887.34;;;7.04;86.45
45078;BME280;60508;42.622;25.416;2022-12-04T13:47:33;97892.91;;;7.09;86.32
45078;BME280;60508;42.622;25.416;2022-12-04T13:52:55;97892.69;;;7.04;87.36
45078;BME280;60508;42.622;25.416;2022-12-04T14:00:40;97904.03;;;6.85;88.66
45078;BME280;60508;42.622;25.416;2022-12-04T14:03:24;97897.88;;;6.91;88.32
45078;BME280;60508;42.622;25.416;2022-12-04T14:05:53;97891.91;;;6.89;88.65
45078;BME280;60508;42.622;25.416;2022-12-04T14:08:24;97916.03;;;6.95;88.30
45078;BME280;60508;42.622;25.416;2022-12-04T14:11:01;97903.31;;;6.98;88.25
45078;BME280;60508;42.622;25.416;2022-12-04T14:13:50;97900.69;;;6.83;88.86
45078;BME280;60508;42.622;25.416;2022-12-04T14:16:23;97900.25;;;6.79;88.50
45078;BME280;60508;42.622;25.416;2022-12-04T14:19:00;97898.34;;;6.94;87.81
45078;BME280;60508;42.622;25.416;2022-12-04T14:21:44;97904.06;;;6.91;87.29
45078;BME280;60508;42.622;25.416;2022-12-04T14:24:28;97900.00;;;6.74;87.82
45078;BME280;60508;42.622;25.416;2022-12-04T14:26:55;97908.31;;;6.86;88.07
45078;BME280;60508;42.622;25.416;2022-12-04T14:31:54;97919.25;;;6.91;88.17
45078;BME280;60508;42.622;25.416;2022-12-04T14:34:22;97908.38;;;6.92;87.99
45078;BME280;60508;42.622;25.416;2022-12-04T14:36:53;97904.69;;;6.93;88.44
45078;BME280;60508;42.622;25.416;2022-12-04T14:39:29;97907.88;;;7.04;87.75
45078;BME280;60508;42.622;25.416;2022-12-04T14:42:21;97908.56;;;6.91;87.70
45078;BME280;60508;42.622;25.416;2022-12-04T14:44:59;97908.56;;;6.91;87.86
45078;BME280;60508;42.622;25.416;2022-12-04T14:47:45;97919.25;;;6.91;86.92
45078;BME280;60508;42.622;25.416;2022-12-04T14:50:56;97924.03;;;6.95;86.25
45078;BME280;60508;42.622;25.416;2022-12-04T14:58:41;97915.44;;;7.00;85.55
45078;BME280;60508;42.622;25.416;2022-12-04T15:03:46;97911.56;;;7.03;85.08
45078;BME280;60508;42.622;25.416;2022-12-04T15:06:20;97906.41;;;7.01;85.14
45078;BME280;60508;42.622;25.416;2022-12-04T15:08:53;97902.91;;;7.01;84.87
45078;BME280;60508;42.622;25.416;2022-12-04T15:11:49;97903.84;;;6.86;85.24
45078;BME280;60508;42.622;25.416;2022-12-04T15:14:42;97924.22;;;6.94;85.25
45078;BME280;60508;42.622;25.416;2022-12-04T15:17:09;97910.47;;;6.97;85.17
45078;BME280;60508;42.622;25.416;2022-12-04T15:19:36;97903.69;;;6.94;85.26
45078;BME280;60508;42.622;25.416;2022-12-04T15:22:04;97899.31;;;6.87;85.69
45078;BME280;60508;42.622;25.416;2022-12-04T15:24:30;97902.84;;;6.94;85.55
45078;BME280;60508;42.622;25.416;2022-12-04T15:26:56;97897.75;;;6.99;85.66
45078;BME280;60508;42.622;25.416;2022-12-04T15:29:25;97893.63;;;6.97;85.24
45078;BME280;60508;42.622;25.416;2022-12-04T15:31:56;97897.44;;;6.87;85.37
45078;BME280;60508;42.622;25.416;2022-12-04T15:37:19;97916.53;;;7.06;83.77